sensor_id;sensor_type;location;lat;lon;timestamp;temperature;humidity
41533;DHT22;27262;-35.248;149.138;2023-05-07T00:00:00;18.80;64.90
41533;DHT22;27262;-35.248;149.138;2023-05-07T00:02:32;18.90;65.00
41533;DHT22;27262;-35.248;149.138;2023-05-07T00:05:03;18.90;65.10
41533;DHT22;27262;-35.248;149.138;2023-05-07T00:07:34;18.90;64.80
41533;DHT22;27262;-35.248;149.138;2023-05-07T00:10:06;18.80;64.70
41533;DHT22;27262;-35.248;149.138;2023-05-07T00:12:37;18.80;64.90
41533;DHT22;27262;-35.248;149.138;2023-05-07T00:15:08;18.80;64.90
41533;DHT22;27262;-35.248;149.138;2023-05-07T00:17:38;18.90;65.10
41533;DHT22;27262;-35.248;149.138;2023-05-07T00:20:09;18.80;65.10
41533;DHT22;27262;-35.248;149.138;2023-05-07T00:22:40;18.80;64.80
41533;DHT22;27262;-35.248;149.138;2023-05-07T00:25:10;18.80;65.00
41533;DHT22;27262;-35.248;149.138;2023-05-07T00:27:40;18.90;65.00
41533;DHT22;27262;-35.248;149.138;2023-05-07T00:30:11;18.80;64.80
41533;DHT22;27262;-35.248;149.138;2023-05-07T00:32:41;18.80;65.00
41533;DHT22;27262;-35.248;149.138;2023-05-07T00:35:14;18.80;64.80
41533;DHT22;27262;-35.248;149.138;2023-05-07T00:37:44;18.80;64.70
41533;DHT22;27262;-35.248;149.138;2023-05-07T00:40:15;18.80;64.80
41533;DHT22;27262;-35.248;149.138;2023-05-07T00:42:45;18.80;64.60
41533;DHT22;27262;-35.248;149.138;2023-05-07T00:45:16;18.80;64.70
41533;DHT22;27262;-35.248;149.138;2023-05-07T00:47:47;18.80;64.60
41533;DHT22;27262;-35.248;149.138;2023-05-07T00:50:17;18.80;64.60
41533;DHT22;27262;-35.248;149.138;2023-05-07T00:52:48;18.80;64.80
41533;DHT22;27262;-35.248;149.138;2023-05-07T00:55:19;18.80;64.70
41533;DHT22;27262;-35.248;149.138;2023-05-07T00:57:50;18.80;64.60
41533;DHT22;27262;-35.248;149.138;2023-05-07T01:00:20;18.80;64.70
41533;DHT22;27262;-35.248;149.138;2023-05-07T01:02:51;18.80;64.90
41533;DHT22;27262;-35.248;149.138;2023-05-07T01:05:24;18.80;64.60
41533;DHT22;27262;-35.248;149.138;2023-05-07T01:07:55;18.80;64.50
41533;DHT22;27262;-35.248;149.138;2023-05-07T01:10:27;18.80;64.90
41533;DHT22;27262;-35.248;149.138;2023-05-07T01:13:00;18.80;64.60
41533;DHT22;27262;-35.248;149.138;2023-05-07T01:15:30;18.80;64.50
41533;DHT22;27262;-35.248;149.138;2023-05-07T01:18:01;18.80;64.80
41533;DHT22;27262;-35.248;149.138;2023-05-07T01:20:31;18.80;64.50
41533;DHT22;27262;-35.248;149.138;2023-05-07T01:23:01;18.80;64.50
41533;DHT22;27262;-35.248;149.138;2023-05-07T01:25:33;18.80;64.50
41533;DHT22;27262;-35.248;149.138;2023-05-07T01:28:03;18.80;64.50
41533;DHT22;27262;-35.248;149.138;2023-05-07T01:30:35;18.80;64.70
41533;DHT22;27262;-35.248;149.138;2023-05-07T01:33:12;18.80;64.60
41533;DHT22;27262;-35.248;149.138;2023-05-07T01:35:46;18.80;64.50
41533;DHT22;27262;-35.248;149.138;2023-05-07T01:38:24;18.80;64.80
41533;DHT22;27262;-35.248;149.138;2023-05-07T01:40:58;18.80;64.60
41533;DHT22;27262;-35.248;149.138;2023-05-07T01:43:29;18.80;64.50
41533;DHT22;27262;-35.248;149.138;2023-05-07T01:46:01;18.80;64.80
41533;DHT22;27262;-35.248;149.138;2023-05-07T01:48:33;18.80;64.60
41533;DHT22;27262;-35.248;149.138;2023-05-07T01:51:04;18.80;64.50
41533;DHT22;27262;-35.248;149.138;2023-05-07T01:53:39;18.80;64.80
41533;DHT22;27262;-35.248;149.138;2023-05-07T01:56:10;18.90;64.60
41533;DHT22;27262;-35.248;149.138;2023-05-07T01:58:40;18.80;64.50
41533;DHT22;27262;-35.248;149.138;2023-05-07T02:01:10;18.90;64.70
41533;DHT22;27262;-35.248;149.138;2023-05-07T02:03:41;18.80;64.50
41533;DHT22;27262;-35.248;149.138;2023-05-07T02:06:11;18.90;64.80
41533;DHT22;27262;-35.248;149.138;2023-05-07T02:08:42;18.90;64.60
41533;DHT22;27262;-35.248;149.138;2023-05-07T02:11:12;18.90;64.60
41533;DHT22;27262;-35.248;149.138;2023-05-07T02:13:43;18.90;64.80
41533;DHT22;27262;-35.248;149.138;2023-05-07T02:16:13;18.90;64.60
41533;DHT22;27262;-35.248;149.138;2023-05-07T02:18:44;18.90;64.60
41533;DHT22;27262;-35.248;149.138;2023-05-07T02:21:14;18.80;64.50
41533;DHT22;27262;-35.248;149.138;2023-05-07T02:23:45;18.90;64.60
41533;DHT22;27262;-35.248;149.138;2023-05-07T02:26:15;18.90;64.80
41533;DHT22;27262;-35.248;149.138;2023-05-07T02:28:45;18.90;64.60
41533;DHT22;27262;-35.248;149.138;2023-05-07T02:31:16;18.90;64.60
41533;DHT22;27262;-35.248;149.138;2023-05-07T02:33:47;18.90;64.70
41533;DHT22;27262;-35.248;149.138;2023-05-07T02:36:17;18.90;64.50
41533;DHT22;27262;-35.248;149.138;2023-05-07T02:38:47;18.90;64.50
41533;DHT22;27262;-35.248;149.138;2023-05-07T02:41:18;18.90;64.70
41533;DHT22;27262;-35.248;149.138;2023-05-07T02:43:48;18.90;64.70
41533;DHT22;27262;-35.248;149.138;2023-05-07T02:46:18;18.90;65.20
41533;DHT22;27262;-35.248;149.138;2023-05-07T02:48:49;18.90;64.50
41533;DHT22;27262;-35.248;149.138;2023-05-07T02:51:23;18.90;64.60
41533;DHT22;27262;-35.248;149.138;2023-05-07T02:53:53;18.90;64.40
41533;DHT22;27262;-35.248;149.138;2023-05-07T02:56:25;18.90;64.60
41533;DHT22;27262;-35.248;149.138;2023-05-07T02:58:56;18.90;64.40
41533;DHT22;27262;-35.248;149.138;2023-05-07T03:01:26;18.90;64.40
41533;DHT22;27262;-35.248;149.138;2023-05-07T03:03:56;18.90;64.60
41533;DHT22;27262;-35.248;149.138;2023-05-07T03:06:27;18.90;64.50
41533;DHT22;27262;-35.248;149.138;2023-05-07T03:08:57;18.90;64.30
41533;DHT22;27262;-35.248;149.138;2023-05-07T03:11:28;18.90;64.40
41533;DHT22;27262;-35.248;149.138;2023-05-07T03:13:58;18.90;64.50
41533;DHT22;27262;-35.248;149.138;2023-05-07T03:16:28;18.90;64.30
41533;DHT22;27262;-35.248;149.138;2023-05-07T03:18:59;18.90;64.40
41533;DHT22;27262;-35.248;149.138;2023-05-07T03:21:31;18.90;65.20
41533;DHT22;27262;-35.248;149.138;2023-05-07T03:24:03;18.90;64.30
41533;DHT22;27262;-35.248;149.138;2023-05-07T03:26:33;18.90;64.40
41533;DHT22;27262;-35.248;149.138;2023-05-07T03:29:03;18.90;64.40
41533;DHT22;27262;-35.248;149.138;2023-05-07T03:31:34;18.90;64.30
41533;DHT22;27262;-35.248;149.138;2023-05-07T03:34:04;18.90;64.40
41533;DHT22;27262;-35.248;149.138;2023-05-07T03:36:35;18.90;64.40
41533;DHT22;27262;-35.248;149.138;2023-05-07T03:39:05;18.90;64.30
41533;DHT22;27262;-35.248;149.138;2023-05-07T03:41:35;18.90;64.40
41533;DHT22;27262;-35.248;149.138;2023-05-07T03:44:05;19.00;64.40
41533;DHT22;27262;-35.248;149.138;2023-05-07T03:46:36;19.00;64.30
41533;DHT22;27262;-35.248;149.138;2023-05-07T03:49:06;18.90;64.30
41533;DHT22;27262;-35.248;149.138;2023-05-07T03:51:36;19.00;64.40
41533;DHT22;27262;-35.248;149.138;2023-05-07T03:54:07;19.00;64.20
41533;DHT22;27262;-35.248;149.138;2023-05-07T03:56:37;19.00;64.40
41533;DHT22;27262;-35.248;149.138;2023-05-07T03:59:08;19.00;64.40
41533;DHT22;27262;-35.248;149.138;2023-05-07T04:01:38;19.00;64.20
41533;DHT22;27262;-35.248;149.138;2023-05-07T04:04:08;19.00;64.50
41533;DHT22;27262;-35.248;149.138;2023-05-07T04:06:39;19.00;64.40
41533;DHT22;27262;-35.248;149.138;2023-05-07T04:09:09;19.00;64.30
41533;DHT22;27262;-35.248;149.138;2023-05-07T04:11:40;19.00;64.50
41533;DHT22;27262;-35.248;149.138;2023-05-07T04:14:10;19.00;64.30
41533;DHT22;27262;-35.248;149.138;2023-05-07T04:16:40;19.00;64.30
41533;DHT22;27262;-35.248;149.138;2023-05-07T04:19:11;19.00;64.50
41533;DHT22;27262;-35.248;149.138;2023-05-07T04:21:41;19.00;64.40
41533;DHT22;27262;-35.248;149.138;2023-05-07T04:24:11;18.90;64.20
41533;DHT22;27262;-35.248;149.138;2023-05-07T04:26:42;19.00;64.20
41533;DHT22;27262;-35.248;149.138;2023-05-07T04:29:12;19.00;64.30
41533;DHT22;27262;-35.248;149.138;2023-05-07T04:31:42;19.00;64.60
41533;DHT22;27262;-35.248;149.138;2023-05-07T04:34:15;19.00;64.40
41533;DHT22;27262;-35.248;149.138;2023-05-07T04:36:46;19.00;64.30
41533;DHT22;27262;-35.248;149.138;2023-05-07T04:39:17;19.00;64.30
41533;DHT22;27262;-35.248;149.138;2023-05-07T04:41:47;19.00;64.30
41533;DHT22;27262;-35.248;149.138;2023-05-07T04:44:18;19.00;64.60
41533;DHT22;27262;-35.248;149.138;2023-05-07T04:46:48;19.00;64.60
41533;DHT22;27262;-35.248;149.138;2023-05-07T04:49:19;19.10;64.60
41533;DHT22;27262;-35.248;149.138;2023-05-07T04:51:49;19.10;64.50
41533;DHT22;27262;-35.248;149.138;2023-05-07T04:54:20;19.10;64.40
41533;DHT22;27262;-35.248;149.138;2023-05-07T04:56:50;19.10;64.40
41533;DHT22;27262;-35.248;149.138;2023-05-07T04:59:20;19.10;64.40
41533;DHT22;27262;-35.248;149.138;2023-05-07T05:01:50;19.10;64.30
41533;DHT22;27262;-35.248;149.138;2023-05-07T05:04:21;19.10;64.30
41533;DHT22;27262;-35.248;149.138;2023-05-07T05:06:51;19.20;64.30
41533;DHT22;27262;-35.248;149.138;2023-05-07T05:09:22;19.10;64.20
41533;DHT22;27262;-35.248;149.138;2023-05-07T05:11:52;19.20;64.20
41533;DHT22;27262;-35.248;149.138;2023-05-07T05:14:22;19.20;64.10
41533;DHT22;27262;-35.248;149.138;2023-05-07T05:16:53;19.20;64.00
41533;DHT22;27262;-35.248;149.138;2023-05-07T05:19:23;19.20;64.00
41533;DHT22;27262;-35.248;149.138;2023-05-07T05:21:54;19.20;63.90
41533;DHT22;27262;-35.248;149.138;2023-05-07T05:24:24;19.20;63.90
41533;DHT22;27262;-35.248;149.138;2023-05-07T05:26:55;19.20;63.90
41533;DHT22;27262;-35.248;149.138;2023-05-07T05:29:25;19.30;63.90
41533;DHT22;27262;-35.248;149.138;2023-05-07T05:31:56;19.30;63.80
41533;DHT22;27262;-35.248;149.138;2023-05-07T05:34:26;19.30;63.80
41533;DHT22;27262;-35.248;149.138;2023-05-07T05:36:57;19.30;63.70
41533;DHT22;27262;-35.248;149.138;2023-05-07T05:39:28;19.30;63.70
41533;DHT22;27262;-35.248;149.138;2023-05-07T05:41:58;19.30;63.70
41533;DHT22;27262;-35.248;149.138;2023-05-07T05:44:29;19.30;63.70
41533;DHT22;27262;-35.248;149.138;2023-05-07T05:46:59;19.30;63.60
41533;DHT22;27262;-35.248;149.138;2023-05-07T05:49:29;19.40;63.60
41533;DHT22;27262;-35.248;149.138;2023-05-07T05:51:59;19.30;63.50
41533;DHT22;27262;-35.248;149.138;2023-05-07T05:54:30;19.40;63.50
41533;DHT22;27262;-35.248;149.138;2023-05-07T05:57:00;19.30;63.40
41533;DHT22;27262;-35.248;149.138;2023-05-07T05:59:33;19.40;63.40
41533;DHT22;27262;-35.248;149.138;2023-05-07T06:02:03;19.40;63.40
41533;DHT22;27262;-35.248;149.138;2023-05-07T06:04:34;19.40;63.30
41533;DHT22;27262;-35.248;149.138;2023-05-07T06:07:04;19.40;63.30
41533;DHT22;27262;-35.248;149.138;2023-05-07T06:09:35;19.40;63.20
41533;DHT22;27262;-35.248;149.138;2023-05-07T06:12:05;19.40;64.00
41533;DHT22;27262;-35.248;149.138;2023-05-07T06:14:36;19.40;63.20
41533;DHT22;27262;-35.248;149.138;2023-05-07T06:17:06;19.40;63.10
41533;DHT22;27262;-35.248;149.138;2023-05-07T06:19:36;19.50;63.20
41533;DHT22;27262;-35.248;149.138;2023-05-07T06:22:07;19.50;63.10
41533;DHT22;27262;-35.248;149.138;2023-05-07T06:24:37;19.50;63.10
41533;DHT22;27262;-35.248;149.138;2023-05-07T06:27:07;19.50;63.10
41533;DHT22;27262;-35.248;149.138;2023-05-07T06:29:37;19.50;63.10
41533;DHT22;27262;-35.248;149.138;2023-05-07T06:32:09;19.50;63.00
41533;DHT22;27262;-35.248;149.138;2023-05-07T06:34:40;19.50;63.10
41533;DHT22;27262;-35.248;149.138;2023-05-07T06:37:11;19.50;63.00
41533;DHT22;27262;-35.248;149.138;2023-05-07T06:39:41;19.50;63.00
41533;DHT22;27262;-35.248;149.138;2023-05-07T06:42:11;19.50;63.00
41533;DHT22;27262;-35.248;149.138;2023-05-07T06:44:41;19.50;62.90
41533;DHT22;27262;-35.248;149.138;2023-05-07T06:47:11;19.60;63.00
41533;DHT22;27262;-35.248;149.138;2023-05-07T06:49:43;19.50;62.90
41533;DHT22;27262;-35.248;149.138;2023-05-07T06:52:14;19.60;63.00
41533;DHT22;27262;-35.248;149.138;2023-05-07T06:54:44;19.60;62.90
41533;DHT22;27262;-35.248;149.138;2023-05-07T06:57:14;19.60;62.90
41533;DHT22;27262;-35.248;149.138;2023-05-07T06:59:44;19.60;62.90
41533;DHT22;27262;-35.248;149.138;2023-05-07T07:02:14;19.60;62.90
41533;DHT22;27262;-35.248;149.138;2023-05-07T07:04:45;19.60;62.80
41533;DHT22;27262;-35.248;149.138;2023-05-07T07:07:15;19.60;62.90
41533;DHT22;27262;-35.248;149.138;2023-05-07T07:09:46;19.60;62.80
41533;DHT22;27262;-35.248;149.138;2023-05-07T07:12:16;19.60;62.80
41533;DHT22;27262;-35.248;149.138;2023-05-07T07:14:46;19.70;62.90
41533;DHT22;27262;-35.248;149.138;2023-05-07T07:17:16;19.60;62.80
41533;DHT22;27262;-35.248;149.138;2023-05-07T07:19:47;19.70;63.00
41533;DHT22;27262;-35.248;149.138;2023-05-07T07:22:17;19.70;63.20
41533;DHT22;27262;-35.248;149.138;2023-05-07T07:24:47;19.70;63.20
41533;DHT22;27262;-35.248;149.138;2023-05-07T07:27:17;19.70;63.30
41533;DHT22;27262;-35.248;149.138;2023-05-07T07:29:48;19.70;63.40
41533;DHT22;27262;-35.248;149.138;2023-05-07T07:32:18;19.70;63.40
41533;DHT22;27262;-35.248;149.138;2023-05-07T07:34:49;19.80;64.20
41533;DHT22;27262;-35.248;149.138;2023-05-07T07:37:19;19.80;63.60
41533;DHT22;27262;-35.248;149.138;2023-05-07T07:39:49;19.80;63.50
41533;DHT22;27262;-35.248;149.138;2023-05-07T07:42:19;19.90;63.50
41533;DHT22;27262;-35.248;149.138;2023-05-07T07:44:50;19.90;63.60
41533;DHT22;27262;-35.248;149.138;2023-05-07T07:47:20;19.90;63.50
41533;DHT22;27262;-35.248;149.138;2023-05-07T07:49:50;19.90;63.40
41533;DHT22;27262;-35.248;149.138;2023-05-07T07:52:21;19.90;63.40
41533;DHT22;27262;-35.248;149.138;2023-05-07T07:54:51;20.00;63.20
41533;DHT22;27262;-35.248;149.138;2023-05-07T07:57:21;20.00;63.20
41533;DHT22;27262;-35.248;149.138;2023-05-07T07:59:51;20.00;63.20
41533;DHT22;27262;-35.248;149.138;2023-05-07T08:02:22;20.10;63.10
41533;DHT22;27262;-35.248;149.138;2023-05-07T08:04:52;20.10;63.10
41533;DHT22;27262;-35.248;149.138;2023-05-07T08:07:23;20.10;63.10
41533;DHT22;27262;-35.248;149.138;2023-05-07T08:09:53;20.10;63.00
41533;DHT22;27262;-35.248;149.138;2023-05-07T08:12:24;20.10;63.00
41533;DHT22;27262;-35.248;149.138;2023-05-07T08:14:55;20.10;63.00
41533;DHT22;27262;-35.248;149.138;2023-05-07T08:17:25;20.20;62.90
41533;DHT22;27262;-35.248;149.138;2023-05-07T08:19:55;20.20;62.80
41533;DHT22;27262;-35.248;149.138;2023-05-07T08:22:26;20.20;62.70
41533;DHT22;27262;-35.248;149.138;2023-05-07T08:24:56;20.20;62.60
41533;DHT22;27262;-35.248;149.138;2023-05-07T08:27:26;20.30;62.60
41533;DHT22;27262;-35.248;149.138;2023-05-07T08:29:57;20.20;62.50
41533;DHT22;27262;-35.248;149.138;2023-05-07T08:32:27;20.30;62.40
41533;DHT22;27262;-35.248;149.138;2023-05-07T08:34:57;20.30;62.30
41533;DHT22;27262;-35.248;149.138;2023-05-07T08:37:28;20.30;62.20
41533;DHT22;27262;-35.248;149.138;2023-05-07T08:39:58;20.30;62.30
41533;DHT22;27262;-35.248;149.138;2023-05-07T08:42:29;20.40;62.30
41533;DHT22;27262;-35.248;149.138;2023-05-07T08:45:00;20.40;62.20
41533;DHT22;27262;-35.248;149.138;2023-05-07T08:47:39;20.30;62.20
41533;DHT22;27262;-35.248;149.138;2023-05-07T08:50:10;20.30;62.10
41533;DHT22;27262;-35.248;149.138;2023-05-07T08:52:41;20.40;62.00
41533;DHT22;27262;-35.248;149.138;2023-05-07T08:55:13;20.40;61.90
41533;DHT22;27262;-35.248;149.138;2023-05-07T08:57:44;20.30;61.90
41533;DHT22;27262;-35.248;149.138;2023-05-07T09:00:15;20.40;61.90
41533;DHT22;27262;-35.248;149.138;2023-05-07T09:02:45;20.30;61.90
41533;DHT22;27262;-35.248;149.138;2023-05-07T09:05:16;20.40;61.90
41533;DHT22;27262;-35.248;149.138;2023-05-07T09:07:46;20.40;61.80
41533;DHT22;27262;-35.248;149.138;2023-05-07T09:10:20;20.40;61.90
41533;DHT22;27262;-35.248;149.138;2023-05-07T09:12:51;20.30;61.90
41533;DHT22;27262;-35.248;149.138;2023-05-07T09:15:21;20.40;61.80
41533;DHT22;27262;-35.248;149.138;2023-05-07T09:17:51;20.40;61.80
41533;DHT22;27262;-35.248;149.138;2023-05-07T09:20:22;20.40;61.90
41533;DHT22;27262;-35.248;149.138;2023-05-07T09:22:54;20.40;61.80
41533;DHT22;27262;-35.248;149.138;2023-05-07T09:25:32;20.40;61.70
41533;DHT22;27262;-35.248;149.138;2023-05-07T09:28:04;20.40;61.80
41533;DHT22;27262;-35.248;149.138;2023-05-07T09:30:36;20.40;61.80
41533;DHT22;27262;-35.248;149.138;2023-05-07T09:33:08;20.40;61.70
41533;DHT22;27262;-35.248;149.138;2023-05-07T09:35:39;20.40;61.80
41533;DHT22;27262;-35.248;149.138;2023-05-07T09:38:09;20.30;61.80
41533;DHT22;27262;-35.248;149.138;2023-05-07T09:40:40;20.40;61.80
41533;DHT22;27262;-35.248;149.138;2023-05-07T09:43:11;20.40;61.90
41533;DHT22;27262;-35.248;149.138;2023-05-07T09:45:43;20.40;62.70
41533;DHT22;27262;-35.248;149.138;2023-05-07T09:48:16;20.30;62.00
41533;DHT22;27262;-35.248;149.138;2023-05-07T09:50:51;20.40;62.10
41533;DHT22;27262;-35.248;149.138;2023-05-07T09:53:22;20.40;62.20
41533;DHT22;27262;-35.248;149.138;2023-05-07T09:55:53;20.40;62.20
41533;DHT22;27262;-35.248;149.138;2023-05-07T09:58:26;20.30;63.00
41533;DHT22;27262;-35.248;149.138;2023-05-07T10:00:57;20.30;62.20
41533;DHT22;27262;-35.248;149.138;2023-05-07T10:03:27;20.40;62.20
41533;DHT22;27262;-35.248;149.138;2023-05-07T10:06:02;20.40;62.20
41533;DHT22;27262;-35.248;149.138;2023-05-07T10:08:33;20.40;62.30
41533;DHT22;27262;-35.248;149.138;2023-05-07T10:11:05;20.40;62.20
41533;DHT22;27262;-35.248;149.138;2023-05-07T10:13:38;20.40;62.20
41533;DHT22;27262;-35.248;149.138;2023-05-07T10:16:08;20.40;62.30
41533;DHT22;27262;-35.248;149.138;2023-05-07T10:18:40;20.40;62.20
41533;DHT22;27262;-35.248;149.138;2023-05-07T10:21:21;20.40;62.20
41533;DHT22;27262;-35.248;149.138;2023-05-07T10:24:11;20.40;62.20
41533;DHT22;27262;-35.248;149.138;2023-05-07T10:26:47;20.40;62.20
41533;DHT22;27262;-35.248;149.138;2023-05-07T10:35:25;20.30;62.40
41533;DHT22;27262;-35.248;149.138;2023-05-07T10:37:56;20.30;62.20
41533;DHT22;27262;-35.248;149.138;2023-05-07T10:40:26;20.30;62.30
41533;DHT22;27262;-35.248;149.138;2023-05-07T10:45:35;20.30;62.20
41533;DHT22;27262;-35.248;149.138;2023-05-07T10:48:10;20.30;62.10
41533;DHT22;27262;-35.248;149.138;2023-05-07T10:51:19;20.30;62.10
41533;DHT22;27262;-35.248;149.138;2023-05-07T10:56:42;20.30;61.90
41533;DHT22;27262;-35.248;149.138;2023-05-07T11:04:26;20.30;62.10
41533;DHT22;27262;-35.248;149.138;2023-05-07T11:09:55;20.30;61.90
41533;DHT22;27262;-35.248;149.138;2023-05-07T11:15:14;20.20;62.00
41533;DHT22;27262;-35.248;149.138;2023-05-07T11:17:55;20.20;62.20
41533;DHT22;27262;-35.248;149.138;2023-05-07T11:21:01;20.20;62.10
41533;DHT22;27262;-35.248;149.138;2023-05-07T11:26:10;20.10;62.30
41533;DHT22;27262;-35.248;149.138;2023-05-07T11:28:42;20.00;62.20
41533;DHT22;27262;-35.248;149.138;2023-05-07T11:31:12;20.00;62.10
41533;DHT22;27262;-35.248;149.138;2023-05-07T11:33:44;20.00;62.00
41533;DHT22;27262;-35.248;149.138;2023-05-07T11:36:15;20.00;62.00
41533;DHT22;27262;-35.248;149.138;2023-05-07T11:38:45;19.90;61.90
41533;DHT22;27262;-35.248;149.138;2023-05-07T11:41:16;19.90;61.90
41533;DHT22;27262;-35.248;149.138;2023-05-07T11:43:56;19.90;61.90
41533;DHT22;27262;-35.248;149.138;2023-05-07T11:46:27;19.90;61.80
41533;DHT22;27262;-35.248;149.138;2023-05-07T11:48:58;19.90;61.90
41533;DHT22;27262;-35.248;149.138;2023-05-07T11:51:30;19.90;61.90
41533;DHT22;27262;-35.248;149.138;2023-05-07T11:54:04;19.80;61.80
41533;DHT22;27262;-35.248;149.138;2023-05-07T11:56:38;19.80;61.80
41533;DHT22;27262;-35.248;149.138;2023-05-07T11:59:08;19.80;61.90
41533;DHT22;27262;-35.248;149.138;2023-05-07T12:01:39;19.80;61.90
41533;DHT22;27262;-35.248;149.138;2023-05-07T12:04:09;19.70;61.90
41533;DHT22;27262;-35.248;149.138;2023-05-07T12:06:40;19.70;61.90
41533;DHT22;27262;-35.248;149.138;2023-05-07T12:09:10;19.70;61.90
41533;DHT22;27262;-35.248;149.138;2023-05-07T12:11:41;19.70;62.70
41533;DHT22;27262;-35.248;149.138;2023-05-07T12:14:16;19.60;61.90
41533;DHT22;27262;-35.248;149.138;2023-05-07T12:16:46;19.60;62.00
41533;DHT22;27262;-35.248;149.138;2023-05-07T12:19:17;19.60;61.90
41533;DHT22;27262;-35.248;149.138;2023-05-07T12:21:48;19.50;61.90
41533;DHT22;27262;-35.248;149.138;2023-05-07T12:24:19;19.50;61.90
41533;DHT22;27262;-35.248;149.138;2023-05-07T12:26:50;19.50;61.90
41533;DHT22;27262;-35.248;149.138;2023-05-07T12:29:23;19.50;62.00
41533;DHT22;27262;-35.248;149.138;2023-05-07T12:31:53;19.50;62.00
41533;DHT22;27262;-35.248;149.138;2023-05-07T12:34:24;19.40;62.00
41533;DHT22;27262;-35.248;149.138;2023-05-07T12:36:54;19.40;62.00
41533;DHT22;27262;-35.248;149.138;2023-05-07T12:39:25;19.40;62.00
41533;DHT22;27262;-35.248;149.138;2023-05-07T12:41:59;19.40;62.10
41533;DHT22;27262;-35.248;149.138;2023-05-07T12:44:31;19.40;62.00
41533;DHT22;27262;-35.248;149.138;2023-05-07T12:47:04;19.40;62.10
41533;DHT22;27262;-35.248;149.138;2023-05-07T12:49:35;19.30;62.00
41533;DHT22;27262;-35.248;149.138;2023-05-07T12:52:09;19.30;62.00
41533;DHT22;27262;-35.248;149.138;2023-05-07T12:54:41;19.30;62.10
41533;DHT22;27262;-35.248;149.138;2023-05-07T12:57:11;19.30;62.10
41533;DHT22;27262;-35.248;149.138;2023-05-07T12:59:42;19.20;62.10
41533;DHT22;27262;-35.248;149.138;2023-05-07T13:02:12;19.20;62.10
41533;DHT22;27262;-35.248;149.138;2023-05-07T13:04:42;19.20;62.00
41533;DHT22;27262;-35.248;149.138;2023-05-07T13:07:13;19.10;61.90
41533;DHT22;27262;-35.248;149.138;2023-05-07T13:09:43;19.10;61.90
41533;DHT22;27262;-35.248;149.138;2023-05-07T13:12:14;19.10;61.90
41533;DHT22;27262;-35.248;149.138;2023-05-07T13:14:44;19.10;61.90
41533;DHT22;27262;-35.248;149.138;2023-05-07T13:17:14;19.10;61.90
41533;DHT22;27262;-35.248;149.138;2023-05-07T13:19:44;19.10;61.90
41533;DHT22;27262;-35.248;149.138;2023-05-07T13:22:15;19.10;62.00
41533;DHT22;27262;-35.248;149.138;2023-05-07T13:24:45;19.00;62.00
41533;DHT22;27262;-35.248;149.138;2023-05-07T13:27:15;19.00;61.90
41533;DHT22;27262;-35.248;149.138;2023-05-07T13:29:45;19.00;61.90
41533;DHT22;27262;-35.248;149.138;2023-05-07T13:32:16;19.00;61.90
41533;DHT22;27262;-35.248;149.138;2023-05-07T13:34:46;19.00;61.90
41533;DHT22;27262;-35.248;149.138;2023-05-07T13:37:16;18.90;61.80
41533;DHT22;27262;-35.248;149.138;2023-05-07T13:39:46;18.90;61.80
41533;DHT22;27262;-35.248;149.138;2023-05-07T13:42:17;18.90;61.90
41533;DHT22;27262;-35.248;149.138;2023-05-07T13:44:47;18.90;61.90
41533;DHT22;27262;-35.248;149.138;2023-05-07T13:47:17;18.90;61.90
41533;DHT22;27262;-35.248;149.138;2023-05-07T13:49:49;18.80;62.60
41533;DHT22;27262;-35.248;149.138;2023-05-07T13:52:20;18.80;61.90
41533;DHT22;27262;-35.248;149.138;2023-05-07T13:54:50;18.80;61.90
41533;DHT22;27262;-35.248;149.138;2023-05-07T13:57:21;18.80;61.90
41533;DHT22;27262;-35.248;149.138;2023-05-07T13:59:52;18.80;61.90
41533;DHT22;27262;-35.248;149.138;2023-05-07T14:02:22;18.70;61.80
41533;DHT22;27262;-35.248;149.138;2023-05-07T14:04:53;18.70;61.90
41533;DHT22;27262;-35.248;149.138;2023-05-07T14:07:24;18.70;61.90
41533;DHT22;27262;-35.248;149.138;2023-05-07T14:09:55;18.70;61.90
41533;DHT22;27262;-35.248;149.138;2023-05-07T14:12:26;18.70;61.90
41533;DHT22;27262;-35.248;149.138;2023-05-07T14:14:56;18.60;61.90
41533;DHT22;27262;-35.248;149.138;2023-05-07T14:17:26;18.60;61.90
41533;DHT22;27262;-35.248;149.138;2023-05-07T14:19:57;18.60;61.90
41533;DHT22;27262;-35.248;149.138;2023-05-07T14:22:28;18.60;61.90
41533;DHT22;27262;-35.248;149.138;2023-05-07T14:24:58;18.60;61.90
41533;DHT22;27262;-35.248;149.138;2023-05-07T14:27:34;18.50;61.80
41533;DHT22;27262;-35.248;149.138;2023-05-07T14:30:04;18.50;61.90
41533;DHT22;27262;-35.248;149.138;2023-05-07T14:32:35;18.50;61.90
41533;DHT22;27262;-35.248;149.138;2023-05-07T14:35:06;18.50;61.90
41533;DHT22;27262;-35.248;149.138;2023-05-07T14:37:36;18.40;61.80
41533;DHT22;27262;-35.248;149.138;2023-05-07T14:40:07;18.40;61.80
41533;DHT22;27262;-35.248;149.138;2023-05-07T14:42:38;18.40;61.90
41533;DHT22;27262;-35.248;149.138;2023-05-07T14:45:09;18.40;61.90
41533;DHT22;27262;-35.248;149.138;2023-05-07T14:47:39;18.40;61.90
41533;DHT22;27262;-35.248;149.138;2023-05-07T14:50:10;18.40;62.00
41533;DHT22;27262;-35.248;149.138;2023-05-07T14:52:40;18.30;61.90
41533;DHT22;27262;-35.248;149.138;2023-05-07T14:55:11;18.30;61.90
41533;DHT22;27262;-35.248;149.138;2023-05-07T14:57:41;18.30;61.90
41533;DHT22;27262;-35.248;149.138;2023-05-07T15:00:12;18.30;62.00
41533;DHT22;27262;-35.248;149.138;2023-05-07T15:02:42;18.20;61.90
41533;DHT22;27262;-35.248;149.138;2023-05-07T15:05:13;18.20;61.90
41533;DHT22;27262;-35.248;149.138;2023-05-07T15:07:45;18.20;62.00
41533;DHT22;27262;-35.248;149.138;2023-05-07T15:10:15;18.20;61.90
41533;DHT22;27262;-35.248;149.138;2023-05-07T15:12:45;18.10;62.00
41533;DHT22;27262;-35.248;149.138;2023-05-07T15:15:16;18.10;62.00
41533;DHT22;27262;-35.248;149.138;2023-05-07T15:17:46;18.10;62.00
41533;DHT22;27262;-35.248;149.138;2023-05-07T15:20:16;18.10;62.00
41533;DHT22;27262;-35.248;149.138;2023-05-07T15:22:47;18.10;62.00
41533;DHT22;27262;-35.248;149.138;2023-05-07T15:25:17;18.10;62.00
41533;DHT22;27262;-35.248;149.138;2023-05-07T15:27:47;18.10;62.00
41533;DHT22;27262;-35.248;149.138;2023-05-07T15:30:19;18.00;62.00
41533;DHT22;27262;-35.248;149.138;2023-05-07T15:32:49;18.00;62.00
41533;DHT22;27262;-35.248;149.138;2023-05-07T15:35:20;18.00;62.00